sensor_id;sensor_type;location;lat;lon;timestamp;temperature;humidity
84067;SHT35;74151;52.134;5.500;2024-03-08T00:00:40;3.38;80.90
84067;SHT35;74151;52.134;5.500;2024-03-08T00:03:16;3.34;81.07
84067;SHT35;74151;52.134;5.500;2024-03-08T00:05:51;3.31;81.12
84067;SHT35;74151;52.134;5.500;2024-03-08T00:08:22;3.28;80.92
84067;SHT35;74151;52.134;5.500;2024-03-08T00:11:00;3.26;80.92
84067;SHT35;74151;52.134;5.500;2024-03-08T00:13:34;3.21;81.17
84067;SHT35;74151;52.134;5.500;2024-03-08T00:16:10;3.18;81.14
84067;SHT35;74151;52.134;5.500;2024-03-08T00:18:43;3.16;81.12
84067;SHT35;74151;52.134;5.500;2024-03-08T00:21:20;3.11;81.19
84067;SHT35;74151;52.134;5.500;2024-03-08T00:23:58;3.08;81.44
84067;SHT35;74151;52.134;5.500;2024-03-08T00:26:34;3.07;81.32
84067;SHT35;74151;52.134;5.500;2024-03-08T00:29:08;3.05;81.26
84067;SHT35;74151;52.134;5.500;2024-03-08T00:31:42;3.03;81.23
84067;SHT35;74151;52.134;5.500;2024-03-08T00:34:16;2.98;81.31
84067;SHT35;74151;52.134;5.500;2024-03-08T00:36:50;2.95;81.48
84067;SHT35;74151;52.134;5.500;2024-03-08T00:39:26;2.93;81.35
84067;SHT35;74151;52.134;5.500;2024-03-08T00:41:59;2.92;81.38
84067;SHT35;74151;52.134;5.500;2024-03-08T00:44:36;2.90;81.43
84067;SHT35;74151;52.134;5.500;2024-03-08T00:47:10;2.88;81.50
84067;SHT35;74151;52.134;5.500;2024-03-08T00:49:49;2.86;81.47
84067;SHT35;74151;52.134;5.500;2024-03-08T00:52:20;2.84;81.50
84067;SHT35;74151;52.134;5.500;2024-03-08T00:54:54;2.82;81.84
84067;SHT35;74151;52.134;5.500;2024-03-08T00:57:26;2.81;81.51
84067;SHT35;74151;52.134;5.500;2024-03-08T01:00:04;2.79;81.43
84067;SHT35;74151;52.134;5.500;2024-03-08T01:02:41;2.76;81.39
84067;SHT35;74151;52.134;5.500;2024-03-08T01:05:17;2.72;81.62
84067;SHT35;74151;52.134;5.500;2024-03-08T01:07:52;2.70;82.05
84067;SHT35;74151;52.134;5.500;2024-03-08T01:10:24;2.70;81.60
84067;SHT35;74151;52.134;5.500;2024-03-08T01:12:56;2.71;81.44
84067;SHT35;74151;52.134;5.500;2024-03-08T01:15:32;2.70;81.23
84067;SHT35;74151;52.134;5.500;2024-03-08T01:18:08;2.68;81.41
84067;SHT35;74151;52.134;5.500;2024-03-08T01:20:45;2.67;81.23
84067;SHT35;74151;52.134;5.500;2024-03-08T01:23:24;2.63;81.32
84067;SHT35;74151;52.134;5.500;2024-03-08T01:25:58;2.63;81.26
84067;SHT35;74151;52.134;5.500;2024-03-08T01:28:34;2.61;81.22
84067;SHT35;74151;52.134;5.500;2024-03-08T01:31:19;2.60;81.10
84067;SHT35;74151;52.134;5.500;2024-03-08T01:33:57;2.60;80.89
84067;SHT35;74151;52.134;5.500;2024-03-08T01:36:35;2.59;80.77
84067;SHT35;74151;52.134;5.500;2024-03-08T01:39:07;2.57;81.13
84067;SHT35;74151;52.134;5.500;2024-03-08T01:41:41;2.57;80.59
84067;SHT35;74151;52.134;5.500;2024-03-08T01:44:13;2.55;80.74
84067;SHT35;74151;52.134;5.500;2024-03-08T01:46:50;2.54;80.61
84067;SHT35;74151;52.134;5.500;2024-03-08T01:49:28;2.52;80.50
84067;SHT35;74151;52.134;5.500;2024-03-08T01:52:02;2.51;80.39
84067;SHT35;74151;52.134;5.500;2024-03-08T01:54:38;2.49;80.28
84067;SHT35;74151;52.134;5.500;2024-03-08T01:57:15;2.49;80.00
84067;SHT35;74151;52.134;5.500;2024-03-08T01:59:49;2.45;80.17
84067;SHT35;74151;52.134;5.500;2024-03-08T02:02:26;2.43;80.31
84067;SHT35;74151;52.134;5.500;2024-03-08T02:05:00;2.41;79.99
84067;SHT35;74151;52.134;5.500;2024-03-08T02:07:35;2.40;80.37
84067;SHT35;74151;52.134;5.500;2024-03-08T02:10:08;2.38;79.93
84067;SHT35;74151;52.134;5.500;2024-03-08T02:12:42;2.36;79.86
84067;SHT35;74151;52.134;5.500;2024-03-08T02:15:14;2.33;79.88
84067;SHT35;74151;52.134;5.500;2024-03-08T02:17:53;2.29;80.06
84067;SHT35;74151;52.134;5.500;2024-03-08T02:20:28;2.26;80.09
84067;SHT35;74151;52.134;5.500;2024-03-08T02:23:02;2.24;80.42
84067;SHT35;74151;52.134;5.500;2024-03-08T02:25:36;2.23;80.27
84067;SHT35;74151;52.134;5.500;2024-03-08T02:28:15;2.22;80.19
84067;SHT35;74151;52.134;5.500;2024-03-08T02:30:52;2.21;80.03
84067;SHT35;74151;52.134;5.500;2024-03-08T02:33:28;2.18;80.08
84067;SHT35;74151;52.134;5.500;2024-03-08T02:36:02;2.16;79.90
84067;SHT35;74151;52.134;5.500;2024-03-08T02:38:38;2.12;80.33
84067;SHT35;74151;52.134;5.500;2024-03-08T02:41:15;2.08;80.48
84067;SHT35;74151;52.134;5.500;2024-03-08T02:43:48;2.07;80.46
84067;SHT35;74151;52.134;5.500;2024-03-08T02:46:20;2.05;80.33
84067;SHT35;74151;52.134;5.500;2024-03-08T02:48:54;2.01;80.71
84067;SHT35;74151;52.134;5.500;2024-03-08T02:51:27;2.00;80.78
84067;SHT35;74151;52.134;5.500;2024-03-08T02:54:04;1.97;80.64
84067;SHT35;74151;52.134;5.500;2024-03-08T02:56:42;1.96;80.24
84067;SHT35;74151;52.134;5.500;2024-03-08T02:59:18;1.90;80.59
84067;SHT35;74151;52.134;5.500;2024-03-08T03:01:52;1.87;81.00
84067;SHT35;74151;52.134;5.500;2024-03-08T03:04:29;1.86;80.78
84067;SHT35;74151;52.134;5.500;2024-03-08T03:07:03;1.85;80.91
84067;SHT35;74151;52.134;5.500;2024-03-08T03:09:37;1.85;80.84
84067;SHT35;74151;52.134;5.500;2024-03-08T03:12:08;1.85;80.76
84067;SHT35;74151;52.134;5.500;2024-03-08T03:14:43;1.85;80.48
84067;SHT35;74151;52.134;5.500;2024-03-08T03:17:19;1.85;80.57
84067;SHT35;74151;52.134;5.500;2024-03-08T03:19:55;1.85;80.33
84067;SHT35;74151;52.134;5.500;2024-03-08T03:22:34;1.85;80.07
84067;SHT35;74151;52.134;5.500;2024-03-08T03:25:05;1.82;80.49
84067;SHT35;74151;52.134;5.500;2024-03-08T03:27:41;1.82;80.57
84067;SHT35;74151;52.134;5.500;2024-03-08T03:30:12;1.82;80.60
84067;SHT35;74151;52.134;5.500;2024-03-08T03:32:53;1.83;80.28
84067;SHT35;74151;52.134;5.500;2024-03-08T03:35:32;1.83;80.16
84067;SHT35;74151;52.134;5.500;2024-03-08T03:38:06;1.85;79.93
84067;SHT35;74151;52.134;5.500;2024-03-08T03:40:44;1.85;80.07
84067;SHT35;74151;52.134;5.500;2024-03-08T03:43:17;1.85;79.77
84067;SHT35;74151;52.134;5.500;2024-03-08T03:45:53;1.85;79.86
84067;SHT35;74151;52.134;5.500;2024-03-08T03:48:29;1.86;79.73
84067;SHT35;74151;52.134;5.500;2024-03-08T03:51:01;1.86;79.72
84067;SHT35;74151;52.134;5.500;2024-03-08T03:53:38;1.87;79.54
84067;SHT35;74151;52.134;5.500;2024-03-08T03:56:16;1.86;79.31
84067;SHT35;74151;52.134;5.500;2024-03-08T03:58:50;1.86;79.09
84067;SHT35;74151;52.134;5.500;2024-03-08T04:01:24;1.85;79.30
84067;SHT35;74151;52.134;5.500;2024-03-08T04:03:55;1.83;79.18
84067;SHT35;74151;52.134;5.500;2024-03-08T04:06:31;1.79;79.32
84067;SHT35;74151;52.134;5.500;2024-03-08T04:09:07;1.79;79.28
84067;SHT35;74151;52.134;5.500;2024-03-08T04:11:41;1.77;79.21
84067;SHT35;74151;52.134;5.500;2024-03-08T04:14:13;1.75;79.05
84067;SHT35;74151;52.134;5.500;2024-03-08T04:16:46;1.71;79.54
84067;SHT35;74151;52.134;5.500;2024-03-08T04:19:17;1.68;79.74
84067;SHT35;74151;52.134;5.500;2024-03-08T04:21:51;1.67;79.61
84067;SHT35;74151;52.134;5.500;2024-03-08T04:24:23;1.65;79.86
84067;SHT35;74151;52.134;5.500;2024-03-08T04:26:56;1.66;79.16
84067;SHT35;74151;52.134;5.500;2024-03-08T04:29:28;1.63;79.48
84067;SHT35;74151;52.134;5.500;2024-03-08T04:32:04;1.61;79.49
84067;SHT35;74151;52.134;5.500;2024-03-08T04:34:40;1.60;79.51
84067;SHT35;74151;52.134;5.500;2024-03-08T04:37:30;1.58;79.18
84067;SHT35;74151;52.134;5.500;2024-03-08T04:40:04;1.57;79.39
84067;SHT35;74151;52.134;5.500;2024-03-08T04:42:38;1.55;79.43
84067;SHT35;74151;52.134;5.500;2024-03-08T04:45:10;1.53;79.77
84067;SHT35;74151;52.134;5.500;2024-03-08T04:47:47;1.53;79.60
84067;SHT35;74151;52.134;5.500;2024-03-08T04:50:21;1.53;79.49
84067;SHT35;74151;52.134;5.500;2024-03-08T04:52:52;1.53;79.53
84067;SHT35;74151;52.134;5.500;2024-03-08T04:55:27;1.52;79.51
84067;SHT35;74151;52.134;5.500;2024-03-08T04:58:12;1.51;79.05
84067;SHT35;74151;52.134;5.500;2024-03-08T05:00:45;1.49;79.33
84067;SHT35;74151;52.134;5.500;2024-03-08T05:03:33;1.49;79.02
84067;SHT35;74151;52.134;5.500;2024-03-08T05:06:09;1.45;79.19
84067;SHT35;74151;52.134;5.500;2024-03-08T05:08:41;1.43;79.86
84067;SHT35;74151;52.134;5.500;2024-03-08T05:11:17;1.43;79.68
84067;SHT35;74151;52.134;5.500;2024-03-08T05:13:53;1.43;79.58
84067;SHT35;74151;52.134;5.500;2024-03-08T05:16:26;1.43;79.49
84067;SHT35;74151;52.134;5.500;2024-03-08T05:19:00;1.43;79.38
84067;SHT35;74151;52.134;5.500;2024-03-08T05:21:36;1.43;79.20
84067;SHT35;74151;52.134;5.500;2024-03-08T05:24:24;1.41;79.07
84067;SHT35;74151;52.134;5.500;2024-03-08T05:26:57;1.40;79.17
84067;SHT35;74151;52.134;5.500;2024-03-08T05:29:42;1.39;79.51
84067;SHT35;74151;52.134;5.500;2024-03-08T05:32:15;1.38;79.35
84067;SHT35;74151;52.134;5.500;2024-03-08T05:34:49;1.37;79.44
84067;SHT35;74151;52.134;5.500;2024-03-08T05:37:21;1.37;79.37
84067;SHT35;74151;52.134;5.500;2024-03-08T05:39:55;1.36;78.81
84067;SHT35;74151;52.134;5.500;2024-03-08T05:42:31;1.35;79.20
84067;SHT35;74151;52.134;5.500;2024-03-08T05:45:05;1.34;78.85
84067;SHT35;74151;52.134;5.500;2024-03-08T05:47:39;1.32;78.81
84067;SHT35;74151;52.134;5.500;2024-03-08T05:50:14;1.29;79.06
84067;SHT35;74151;52.134;5.500;2024-03-08T05:52:48;1.29;79.10
84067;SHT35;74151;52.134;5.500;2024-03-08T05:55:21;1.29;78.75
84067;SHT35;74151;52.134;5.500;2024-03-08T05:57:55;1.27;79.27
84067;SHT35;74151;52.134;5.500;2024-03-08T06:00:31;1.29;79.03
84067;SHT35;74151;52.134;5.500;2024-03-08T06:03:07;1.28;79.16
84067;SHT35;74151;52.134;5.500;2024-03-08T06:05:54;1.27;78.84
84067;SHT35;74151;52.134;5.500;2024-03-08T06:08:26;1.27;78.54
84067;SHT35;74151;52.134;5.500;2024-03-08T06:10:59;1.25;78.81
84067;SHT35;74151;52.134;5.500;2024-03-08T06:13:34;1.23;78.87
84067;SHT35;74151;52.134;5.500;2024-03-08T06:16:10;1.21;78.98
84067;SHT35;74151;52.134;5.500;2024-03-08T06:18:44;1.18;78.92
84067;SHT35;74151;52.134;5.500;2024-03-08T06:21:31;1.15;79.11
84067;SHT35;74151;52.134;5.500;2024-03-08T06:24:07;1.15;79.47
84067;SHT35;74151;52.134;5.500;2024-03-08T06:26:40;1.15;79.51
84067;SHT35;74151;52.134;5.500;2024-03-08T06:29:11;1.17;79.43
84067;SHT35;74151;52.134;5.500;2024-03-08T06:31:48;1.22;79.45
84067;SHT35;74151;52.134;5.500;2024-03-08T06:34:24;1.27;79.28
84067;SHT35;74151;52.134;5.500;2024-03-08T06:37:01;1.31;78.96
84067;SHT35;74151;52.134;5.500;2024-03-08T06:39:32;1.35;79.08
84067;SHT35;74151;52.134;5.500;2024-03-08T06:42:04;1.40;79.25
84067;SHT35;74151;52.134;5.500;2024-03-08T06:44:41;1.47;78.60
84067;SHT35;74151;52.134;5.500;2024-03-08T06:47:22;1.52;78.57
84067;SHT35;74151;52.134;5.500;2024-03-08T06:49:57;1.58;77.75
84067;SHT35;74151;52.134;5.500;2024-03-08T06:52:31;1.64;77.50
84067;SHT35;74151;52.134;5.500;2024-03-08T06:55:06;1.67;77.61
84067;SHT35;74151;52.134;5.500;2024-03-08T06:57:46;1.72;76.99
84067;SHT35;74151;52.134;5.500;2024-03-08T07:00:22;1.78;77.50
84067;SHT35;74151;52.134;5.500;2024-03-08T07:02:59;1.85;76.71
84067;SHT35;74151;52.134;5.500;2024-03-08T07:05:35;1.92;76.76
84067;SHT35;74151;52.134;5.500;2024-03-08T07:08:08;1.99;76.26
84067;SHT35;74151;52.134;5.500;2024-03-08T07:10:48;2.05;76.64
84067;SHT35;74151;52.134;5.500;2024-03-08T07:13:24;2.16;76.13
84067;SHT35;74151;52.134;5.500;2024-03-08T07:16:01;2.27;75.87
84067;SHT35;74151;52.134;5.500;2024-03-08T07:18:34;2.42;75.57
84067;SHT35;74151;52.134;5.500;2024-03-08T07:21:09;2.57;75.54
84067;SHT35;74151;52.134;5.500;2024-03-08T07:23:46;2.69;74.59
84067;SHT35;74151;52.134;5.500;2024-03-08T07:26:40;2.92;73.82
84067;SHT35;74151;52.134;5.500;2024-03-08T07:29:15;3.06;73.44
84067;SHT35;74151;52.134;5.500;2024-03-08T07:31:50;3.22;72.96
84067;SHT35;74151;52.134;5.500;2024-03-08T07:34:31;3.35;71.97
84067;SHT35;74151;52.134;5.500;2024-03-08T07:37:05;3.51;72.05
84067;SHT35;74151;52.134;5.500;2024-03-08T07:39:40;3.69;71.05
84067;SHT35;74151;52.134;5.500;2024-03-08T07:42:13;3.94;69.80
84067;SHT35;74151;52.134;5.500;2024-03-08T07:44:49;4.28;68.06
84067;SHT35;74151;52.134;5.500;2024-03-08T07:47:26;4.66;66.62
84067;SHT35;74151;52.134;5.500;2024-03-08T07:50:02;4.95;66.63
84067;SHT35;74151;52.134;5.500;2024-03-08T07:52:34;5.23;65.17
84067;SHT35;74151;52.134;5.500;2024-03-08T07:55:09;5.38;63.57
84067;SHT35;74151;52.134;5.500;2024-03-08T07:57:41;5.49;64.00
84067;SHT35;74151;52.134;5.500;2024-03-08T08:00:16;5.61;63.02
84067;SHT35;74151;52.134;5.500;2024-03-08T08:02:53;5.64;62.73
84067;SHT35;74151;52.134;5.500;2024-03-08T08:05:29;5.64;62.91
84067;SHT35;74151;52.134;5.500;2024-03-08T08:08:10;5.68;63.82
84067;SHT35;74151;52.134;5.500;2024-03-08T08:10:46;5.93;63.61
84067;SHT35;74151;52.134;5.500;2024-03-08T08:13:23;6.50;60.98
84067;SHT35;74151;52.134;5.500;2024-03-08T08:15:59;6.95;60.38
84067;SHT35;74151;52.134;5.500;2024-03-08T08:18:33;7.55;58.23
84067;SHT35;74151;52.134;5.500;2024-03-08T08:21:04;8.10;55.83
84067;SHT35;74151;52.134;5.500;2024-03-08T08:23:40;8.40;54.79
84067;SHT35;74151;52.134;5.500;2024-03-08T08:26:11;8.53;55.34
84067;SHT35;74151;52.134;5.500;2024-03-08T08:28:45;8.66;55.53
84067;SHT35;74151;52.134;5.500;2024-03-08T08:31:17;8.93;54.92
84067;SHT35;74151;52.134;5.500;2024-03-08T08:33:52;9.27;53.27
84067;SHT35;74151;52.134;5.500;2024-03-08T08:36:27;9.44;52.72
84067;SHT35;74151;52.134;5.500;2024-03-08T08:38:58;9.52;51.42
84067;SHT35;74151;52.134;5.500;2024-03-08T08:41:34;9.59;50.28
84067;SHT35;74151;52.134;5.500;2024-03-08T08:44:08;9.52;52.63
84067;SHT35;74151;52.134;5.500;2024-03-08T08:46:47;9.50;51.12
84067;SHT35;74151;52.134;5.500;2024-03-08T08:49:27;9.41;54.28
84067;SHT35;74151;52.134;5.500;2024-03-08T08:52:01;9.47;53.23
84067;SHT35;74151;52.134;5.500;2024-03-08T08:54:46;9.61;51.80
84067;SHT35;74151;52.134;5.500;2024-03-08T08:57:21;9.69;51.91
84067;SHT35;74151;52.134;5.500;2024-03-08T08:59:59;9.66;51.88
84067;SHT35;74151;52.134;5.500;2024-03-08T09:02:39;9.66;51.61
84067;SHT35;74151;52.134;5.500;2024-03-08T09:05:18;9.71;51.88
84067;SHT35;74151;52.134;5.500;2024-03-08T09:07:53;9.63;52.95
84067;SHT35;74151;52.134;5.500;2024-03-08T09:10:27;9.60;52.50
84067;SHT35;74151;52.134;5.500;2024-03-08T09:13:02;9.59;53.26
84067;SHT35;74151;52.134;5.500;2024-03-08T09:15:48;9.53;53.59
84067;SHT35;74151;52.134;5.500;2024-03-08T09:18:25;9.53;54.40
84067;SHT35;74151;52.134;5.500;2024-03-08T09:21:00;9.53;54.15
84067;SHT35;74151;52.134;5.500;2024-03-08T09:23:32;9.48;52.64
84067;SHT35;74151;52.134;5.500;2024-03-08T09:26:08;9.32;53.09
84067;SHT35;74151;52.134;5.500;2024-03-08T09:28:47;8.98;56.27
84067;SHT35;74151;52.134;5.500;2024-03-08T09:31:19;8.79;56.13
84067;SHT35;74151;52.134;5.500;2024-03-08T09:33:54;8.63;57.78
84067;SHT35;74151;52.134;5.500;2024-03-08T09:36:28;8.60;57.33
84067;SHT35;74151;52.134;5.500;2024-03-08T09:39:01;8.52;57.43
84067;SHT35;74151;52.134;5.500;2024-03-08T09:41:36;8.49;55.93
84067;SHT35;74151;52.134;5.500;2024-03-08T09:44:08;8.39;56.36
84067;SHT35;74151;52.134;5.500;2024-03-08T09:46:42;8.21;58.35
84067;SHT35;74151;52.134;5.500;2024-03-08T09:49:14;8.15;60.26
84067;SHT35;74151;52.134;5.500;2024-03-08T09:51:46;8.09;59.93
84067;SHT35;74151;52.134;5.500;2024-03-08T09:54:24;8.08;60.83
84067;SHT35;74151;52.134;5.500;2024-03-08T09:56:58;8.08;59.19
84067;SHT35;74151;52.134;5.500;2024-03-08T09:59:32;8.13;60.63
84067;SHT35;74151;52.134;5.500;2024-03-08T10:02:15;8.18;60.18
84067;SHT35;74151;52.134;5.500;2024-03-08T10:04:55;8.23;59.43
84067;SHT35;74151;52.134;5.500;2024-03-08T10:07:30;8.25;59.79
84067;SHT35;74151;52.134;5.500;2024-03-08T10:10:05;8.28;58.05
84067;SHT35;74151;52.134;5.500;2024-03-08T10:12:38;8.28;59.66
84067;SHT35;74151;52.134;5.500;2024-03-08T10:15:12;8.37;58.93
84067;SHT35;74151;52.134;5.500;2024-03-08T10:17:47;8.43;59.45
84067;SHT35;74151;52.134;5.500;2024-03-08T10:20:21;8.50;57.36
84067;SHT35;74151;52.134;5.500;2024-03-08T10:22:55;8.53;57.30
84067;SHT35;74151;52.134;5.500;2024-03-08T10:25:41;8.56;60.14
84067;SHT35;74151;52.134;5.500;2024-03-08T10:28:18;8.61;60.57
84067;SHT35;74151;52.134;5.500;2024-03-08T10:30:50;8.69;60.56
84067;SHT35;74151;52.134;5.500;2024-03-08T10:33:21;8.80;59.17
84067;SHT35;74151;52.134;5.500;2024-03-08T10:35:58;8.95;57.56
84067;SHT35;74151;52.134;5.500;2024-03-08T10:38:35;9.02;59.46
84067;SHT35;74151;52.134;5.500;2024-03-08T10:41:11;9.11;57.39
84067;SHT35;74151;52.134;5.500;2024-03-08T10:44:14;9.18;55.32
84067;SHT35;74151;52.134;5.500;2024-03-08T10:52:42;9.21;54.84
84067;SHT35;74151;52.134;5.500;2024-03-08T10:55:17;9.24;54.75
84067;SHT35;74151;52.134;5.500;2024-03-08T10:57:54;9.23;54.85
84067;SHT35;74151;52.134;5.500;2024-03-08T11:00:30;9.24;57.93
84067;SHT35;74151;52.134;5.500;2024-03-08T11:03:04;9.27;55.79
84067;SHT35;74151;52.134;5.500;2024-03-08T11:05:42;9.32;57.33
84067;SHT35;74151;52.134;5.500;2024-03-08T11:08:22;9.44;56.35
84067;SHT35;74151;52.134;5.500;2024-03-08T11:10:56;9.57;55.42
84067;SHT35;74151;52.134;5.500;2024-03-08T11:13:39;9.71;55.84
84067;SHT35;74151;52.134;5.500;2024-03-08T11:16:38;9.82;53.21
84067;SHT35;74151;52.134;5.500;2024-03-08T11:21:44;9.89;52.93
84067;SHT35;74151;52.134;5.500;2024-03-08T11:24:22;9.89;55.51
84067;SHT35;74151;52.134;5.500;2024-03-08T11:26:58;9.98;54.70
84067;SHT35;74151;52.134;5.500;2024-03-08T11:32:14;10.16;52.28
84067;SHT35;74151;52.134;5.500;2024-03-08T11:34:50;10.15;55.64
84067;SHT35;74151;52.134;5.500;2024-03-08T11:37:22;10.21;54.56
84067;SHT35;74151;52.134;5.500;2024-03-08T11:39:57;10.30;52.28
84067;SHT35;74151;52.134;5.500;2024-03-08T11:42:32;10.38;53.55
84067;SHT35;74151;52.134;5.500;2024-03-08T11:45:09;10.48;52.10
84067;SHT35;74151;52.134;5.500;2024-03-08T11:47:44;10.53;49.51
84067;SHT35;74151;52.134;5.500;2024-03-08T11:50:21;10.55;53.74
84067;SHT35;74151;52.134;5.500;2024-03-08T11:52:53;10.55;54.02
84067;SHT35;74151;52.134;5.500;2024-03-08T11:55:27;10.62;50.83
84067;SHT35;74151;52.134;5.500;2024-03-08T11:58:09;10.67;52.39
84067;SHT35;74151;52.134;5.500;2024-03-08T12:00:47;10.73;53.26
84067;SHT35;74151;52.134;5.500;2024-03-08T12:03:21;10.77;50.19
84067;SHT35;74151;52.134;5.500;2024-03-08T12:05:58;10.74;53.39
84067;SHT35;74151;52.134;5.500;2024-03-08T12:08:35;10.78;53.01
84067;SHT35;74151;52.134;5.500;2024-03-08T12:11:12;10.81;52.03
84067;SHT35;74151;52.134;5.500;2024-03-08T12:13:47;10.84;52.25
84067;SHT35;74151;52.134;5.500;2024-03-08T12:16:21;10.89;53.12
84067;SHT35;74151;52.134;5.500;2024-03-08T12:19:00;10.94;51.91
84067;SHT35;74151;52.134;5.500;2024-03-08T12:21:35;11.03;52.73
84067;SHT35;74151;52.134;5.500;2024-03-08T12:24:18;11.12;51.81
84067;SHT35;74151;52.134;5.500;2024-03-08T12:26:50;11.22;50.74
84067;SHT35;74151;52.134;5.500;2024-03-08T12:29:28;11.17;51.29
84067;SHT35;74151;52.134;5.500;2024-03-08T12:32:00;11.14;50.88
84067;SHT35;74151;52.134;5.500;2024-03-08T12:34:35;11.23;51.86
84067;SHT35;74151;52.134;5.500;2024-03-08T12:37:09;11.25;51.17
84067;SHT35;74151;52.134;5.500;2024-03-08T12:39:42;11.30;52.19
84067;SHT35;74151;52.134;5.500;2024-03-08T12:42:17;11.38;50.14
84067;SHT35;74151;52.134;5.500;2024-03-08T12:44:57;11.42;51.59
84067;SHT35;74151;52.134;5.500;2024-03-08T12:47:31;11.51;49.68
84067;SHT35;74151;52.134;5.500;2024-03-08T12:50:03;11.57;49.60
84067;SHT35;74151;52.134;5.500;2024-03-08T12:52:37;11.57;50.82
84067;SHT35;74151;52.134;5.500;2024-03-08T12:55:09;11.50;49.35
84067;SHT35;74151;52.134;5.500;2024-03-08T12:57:43;11.46;50.61
84067;SHT35;74151;52.134;5.500;2024-03-08T13:00:17;11.47;51.06
84067;SHT35;74151;52.134;5.500;2024-03-08T13:02:49;11.50;51.66
84067;SHT35;74151;52.134;5.500;2024-03-08T13:05:22;11.61;49.41
84067;SHT35;74151;52.134;5.500;2024-03-08T13:07:57;11.60;50.91
84067;SHT35;74151;52.134;5.500;2024-03-08T13:10:28;11.61;50.84
84067;SHT35;74151;52.134;5.500;2024-03-08T13:13:00;11.56;50.87
84067;SHT35;74151;52.134;5.500;2024-03-08T13:15:33;11.60;49.91
84067;SHT35;74151;52.134;5.500;2024-03-08T13:18:09;11.64;49.58
84067;SHT35;74151;52.134;5.500;2024-03-08T13:20:43;11.69;50.61
84067;SHT35;74151;52.134;5.500;2024-03-08T13:23:18;11.64;50.18
84067;SHT35;74151;52.134;5.500;2024-03-08T13:25:52;11.64;49.97
84067;SHT35;74151;52.134;5.500;2024-03-08T13:28:28;11.66;49.59
84067;SHT35;74151;52.134;5.500;2024-03-08T13:31:09;11.67;51.07
84067;SHT35;74151;52.134;5.500;2024-03-08T13:33:45;11.70;52.70
84067;SHT35;74151;52.134;5.500;2024-03-08T13:36:20;11.69;50.81
84067;SHT35;74151;52.134;5.500;2024-03-08T13:39:01;11.74;51.48
84067;SHT35;74151;52.134;5.500;2024-03-08T13:41:41;11.84;47.86
84067;SHT35;74151;52.134;5.500;2024-03-08T13:44:17;11.84;48.45
84067;SHT35;74151;52.134;5.500;2024-03-08T13:46:51;11.84;49.72
84067;SHT35;74151;52.134;5.500;2024-03-08T13:49:28;11.82;48.02
84067;SHT35;74151;52.134;5.500;2024-03-08T13:52:04;11.75;48.03
84067;SHT35;74151;52.134;5.500;2024-03-08T13:54:37;11.66;49.03
84067;SHT35;74151;52.134;5.500;2024-03-08T13:57:11;11.59;49.62
84067;SHT35;74151;52.134;5.500;2024-03-08T13:59:42;11.54;50.46
84067;SHT35;74151;52.134;5.500;2024-03-08T14:02:13;11.52;52.35
84067;SHT35;74151;52.134;5.500;2024-03-08T14:04:51;11.50;50.64
84067;SHT35;74151;52.134;5.500;2024-03-08T14:07:26;11.49;50.48
84067;SHT35;74151;52.134;5.500;2024-03-08T14:10:00;11.46;51.53
84067;SHT35;74151;52.134;5.500;2024-03-08T14:12:39;11.51;51.62
84067;SHT35;74151;52.134;5.500;2024-03-08T14:15:20;11.54;49.90
84067;SHT35;74151;52.134;5.500;2024-03-08T14:17:57;11.53;50.18
84067;SHT35;74151;52.134;5.500;2024-03-08T14:20:28;11.48;50.44
84067;SHT35;74151;52.134;5.500;2024-03-08T14:23:02;11.40;50.47
84067;SHT35;74151;52.134;5.500;2024-03-08T14:25:37;11.40;50.14
84067;SHT35;74151;52.134;5.500;2024-03-08T14:28:13;11.39;48.87
84067;SHT35;74151;52.134;5.500;2024-03-08T14:30:47;11.22;51.08
84067;SHT35;74151;52.134;5.500;2024-03-08T14:33:25;11.15;50.94
84067;SHT35;74151;52.134;5.500;2024-03-08T14:36:02;11.15;50.74
84067;SHT35;74151;52.134;5.500;2024-03-08T14:38:35;11.09;50.14
84067;SHT35;74151;52.134;5.500;2024-03-08T14:41:07;11.04;50.23
84067;SHT35;74151;52.134;5.500;2024-03-08T14:43:42;10.97;51.01
84067;SHT35;74151;52.134;5.500;2024-03-08T14:46:15;10.97;52.63
84067;SHT35;74151;52.134;5.500;2024-03-08T14:48:50;10.98;51.89
84067;SHT35;74151;52.134;5.500;2024-03-08T14:51:28;10.98;51.68
84067;SHT35;74151;52.134;5.500;2024-03-08T14:54:02;10.94;50.64
84067;SHT35;74151;52.134;5.500;2024-03-08T14:56:37;10.93;50.90
84067;SHT35;74151;52.134;5.500;2024-03-08T14:59:14;10.92;50.43
84067;SHT35;74151;52.134;5.500;2024-03-08T15:01:46;10.91;50.30
84067;SHT35;74151;52.134;5.500;2024-03-08T15:04:20;10.92;50.45
84067;SHT35;74151;52.134;5.500;2024-03-08T15:06:54;10.90;51.08
84067;SHT35;74151;52.134;5.500;2024-03-08T15:09:27;10.87;51.11
84067;SHT35;74151;52.134;5.500;2024-03-08T15:12:01;10.81;52.15
84067;SHT35;74151;52.134;5.500;2024-03-08T15:14:33;10.78;51.09
84067;SHT35;74151;52.134;5.500;2024-03-08T15:17:04;10.72;50.59
84067;SHT35;74151;52.134;5.500;2024-03-08T15:19:42;10.68;51.55
84067;SHT35;74151;52.134;5.500;2024-03-08T15:22:17;10.61;52.09
84067;SHT35;74151;52.134;5.500;2024-03-08T15:24:51;10.60;51.81
84067;SHT35;74151;52.134;5.500;2024-03-08T15:27:26;10.56;51.32
84067;SHT35;74151;52.134;5.500;2024-03-08T15:30:01;10.55;51.83
84067;SHT35;74151;52.134;5.500;2024-03-08T15:32:35;10.52;51.11
84067;SHT35;74151;52.134;5.500;2024-03-08T15:35:13;10.49;52.31
84067;SHT35;74151;52.134;5.500;2024-03-08T15:37:45;10.44;52.01
84067;SHT35;74151;52.134;5.500;2024-03-08T15:40:19;10.39;52.04
84067;SHT35;74151;52.134;5.500;2024-03-08T15:42:57;10.33;51.96
84067;SHT35;74151;52.134;5.500;2024-03-08T15:45:30;10.28;51.71
84067;SHT35;74151;52.134;5.500;2024-03-08T15:48:09;10.26;52.08
84067;SHT35;74151;52.134;5.500;2024-03-08T15:50:40;10.17;54.28
84067;SHT35;74151;52.134;5.500;2024-03-08T15:53:14;10.14;53.72
84067;SHT35;74151;52.134;5.500;2024-03-08T15:55:45;10.12;53.60
84067;SHT35;74151;52.134;5.500;2024-03-08T15:58:19;10.11;53.22
84067;SHT35;74151;52.134;5.500;2024-03-08T16:00:53;10.10;54.31
84067;SHT35;74151;52.134;5.500;2024-03-08T16:03:25;10.10;52.55
84067;SHT35;74151;52.134;5.500;2024-03-08T16:06:04;10.08;52.83
84067;SHT35;74151;52.134;5.500;2024-03-08T16:08:35;10.03;53.11
84067;SHT35;74151;52.134;5.500;2024-03-08T16:11:08;9.99;52.33
84067;SHT35;74151;52.134;5.500;2024-03-08T16:13:47;9.95;53.57
84067;SHT35;74151;52.134;5.500;2024-03-08T16:16:21;9.86;52.56
84067;SHT35;74151;52.134;5.500;2024-03-08T16:18:55;9.81;51.22
84067;SHT35;74151;52.134;5.500;2024-03-08T16:21:29;9.72;52.10
84067;SHT35;74151;52.134;5.500;2024-03-08T16:24:04;9.64;52.87
84067;SHT35;74151;52.134;5.500;2024-03-08T16:26:40;9.58;54.04
84067;SHT35;74151;52.134;5.500;2024-03-08T16:29:15;9.54;52.59
84067;SHT35;74151;52.134;5.500;2024-03-08T16:31:48;9.45;53.25
84067;SHT35;74151;52.134;5.500;2024-03-08T16:34:20;9.40;53.41
84067;SHT35;74151;52.134;5.500;2024-03-08T16:36:53;9.35;53.95
84067;SHT35;74151;52.134;5.500;2024-03-08T16:39:28;9.30;53.80
84067;SHT35;74151;52.134;5.500;2024-03-08T16:42:04;9.26;54.94
84067;SHT35;74151;52.134;5.500;2024-03-08T16:44:39;9.25;53.98